Time,TemperatureF,DewpointF,PressureIn,WindDirection,WindDirectionDegrees,WindSpeedMPH,WindSpeedGustMPH,Humidity,HourlyPrecipIn,Conditions,Clouds,dailyrainin,SoftwareType,DateUTC
2013-09-01 00:02:00,47.3,45.4,29.81,ESE,117,0.0,0.0,93,0.01,,---,0.00,VWS V14.01,2013-09-01 08:02:00,
2013-09-01 00:08:00,47.1,45.2,29.81,ESE,117,0.0,0.0,93,0.01,,---,0.00,VWS V14.01,2013-09-01 08:08:00,
2013-09-01 00:14:00,47.0,45.1,29.81,ESE,117,0.0,0.0,93,0.01,,---,0.00,VWS V14.01,2013-09-01 08:14:00,
2013-09-01 00:20:00,46.8,44.9,29.81,SE,139,0.0,3.0,93,0.01,,---,0.00,VWS V14.01,2013-09-01 08:20:00,
2013-09-01 00:26:00,46.8,44.9,29.81,SSE,148,0.0,4.0,93,0.01,,---,0.00,VWS V14.01,2013-09-01 08:26:00,
2013-09-01 00:32:00,46.7,44.8,29.82,SSE,148,0.0,0.0,93,0.01,,---,0.00,VWS V14.01,2013-09-01 08:32:00,
2013-09-01 00:38:00,46.5,44.6,29.82,SSE,148,0.0,0.0,93,0.02,,---,0.01,VWS V14.01,2013-09-01 08:38:00,
2013-09-01 00:45:00,46.5,44.6,29.82,SSE,147,0.0,3.0,93,0.02,,---,0.01,VWS V14.01,2013-09-01 08:45:00,
2013-09-01 00:51:00,46.5,44.6,29.82,SSE,147,0.0,3.0,93,0.02,,---,0.01,VWS V14.01,2013-09-01 08:51:00,
2013-09-01 00:57:00,46.5,44.6,29.82,SSE,148,0.0,3.0,93,0.02,,---,0.01,VWS V14.01,2013-09-01 08:57:00,
2013-09-01 01:03:00,46.7,44.8,29.82,SSE,147,0.0,0.0,93,0.01,,---,0.01,VWS V14.01,2013-09-01 09:03:00,
2013-09-01 01:09:00,46.7,44.8,29.82,SSE,147,0.0,0.0,93,0.01,,---,0.01,VWS V14.01,2013-09-01 09:09:00,
2013-09-01 01:15:00,46.5,44.6,29.82,SE,146,0.0,0.0,93,0.01,,---,0.01,VWS V14.01,2013-09-01 09:15:00,
2013-09-01 01:21:00,46.5,44.6,29.82,East,80,0.0,3.0,93,0.01,,---,0.01,VWS V14.01,2013-09-01 09:21:00,
2013-09-01 01:29:00,46.7,45.1,29.82,East,80,0.0,3.0,94,0.01,,---,0.01,VWS V14.01,2013-09-01 09:29:00,
2013-09-01 01:35:00,46.7,45.1,29.81,ESE,115,0.0,1.0,94,0.01,,---,0.01,VWS V14.01,2013-09-01 09:35:00,
2013-09-01 01:42:00,46.7,45.1,29.81,SE,126,0.0,2.0,94,0.01,,---,0.01,VWS V14.01,2013-09-01 09:42:00,
2013-09-01 01:48:00,46.7,45.1,29.81,SSE,154,0.0,2.0,94,0.01,,---,0.01,VWS V14.01,2013-09-01 09:48:00,
2013-09-01 01:54:00,46.5,44.6,29.81,SSE,151,0.0,2.0,93,0.01,,---,0.01,VWS V14.01,2013-09-01 09:54:00,
2013-09-01 02:00:00,46.4,44.5,29.81,SSE,151,0.0,2.0,93,0.01,,---,0.01,VWS V14.01,2013-09-01 10:00:00,
2013-09-01 02:06:00,46.2,44.6,29.81,ENE,74,0.0,2.0,94,0.00,,---,0.01,VWS V14.01,2013-09-01 10:06:00,
2013-09-01 02:13:00,46.2,44.3,29.81,East,79,0.0,2.0,93,0.00,,---,0.01,VWS V14.01,2013-09-01 10:13:00,
2013-09-01 02:21:00,46.1,44.2,29.81,ENE,78,0.0,2.0,93,0.01,,---,0.02,VWS V14.01,2013-09-01 10:21:00,
2013-09-01 02:29:00,46.0,44.4,29.81,East,79,0.0,2.0,94,0.01,,---,0.02,VWS V14.01,2013-09-01 10:29:00,
2013-09-01 02:36:00,46.0,44.4,29.81,ENE,78,0.0,1.0,94,0.01,,---,0.02,VWS V14.01,2013-09-01 10:36:00,
2013-09-01 02:42:00,46.0,44.4,29.81,ENE,78,0.0,1.0,94,0.01,,---,0.02,VWS V14.01,2013-09-01 10:42:00,
2013-09-01 02:48:00,46.0,44.4,29.82,ENE,78,0.0,1.0,94,0.01,,---,0.02,VWS V14.01,2013-09-01 10:48:00,
2013-09-01 02:54:00,46.0,44.4,29.82,ENE,78,0.0,1.0,94,0.01,,---,0.02,VWS V14.01,2013-09-01 10:54:00,
2013-09-01 03:00:00,46.0,44.4,29.82,East,79,0.0,1.0,94,0.01,,---,0.02,VWS V14.01,2013-09-01 11:00:00,
2013-09-01 03:07:00,46.0,44.4,29.82,East,79,0.0,0.0,94,0.01,,---,0.02,VWS V14.01,2013-09-01 11:07:00,
2013-09-01 03:13:00,45.8,44.2,29.82,ENE,78,0.0,0.0,94,0.01,,---,0.02,VWS V14.01,2013-09-01 11:13:00,
2013-09-01 03:19:00,46.0,44.4,29.82,East,79,0.0,0.0,94,0.01,,---,0.02,VWS V14.01,2013-09-01 11:19:00,
2013-09-01 03:25:00,46.0,44.4,29.82,ENE,78,0.0,0.0,94,0.01,,---,0.02,VWS V14.01,2013-09-01 11:25:00,
2013-09-01 03:31:00,46.0,44.4,29.82,East,79,0.0,0.0,94,0.01,,---,0.02,VWS V14.01,2013-09-01 11:31:00,
2013-09-01 03:37:00,46.0,44.4,29.82,ENE,78,0.0,0.0,94,0.00,,---,0.02,VWS V14.01,2013-09-01 11:37:00,
2013-09-01 03:43:00,46.0,44.4,29.82,East,79,0.0,0.0,94,0.00,,---,0.02,VWS V14.01,2013-09-01 11:43:00,
2013-09-01 03:49:00,46.0,44.4,29.82,ENE,78,0.0,0.0,94,0.00,,---,0.02,VWS V14.01,2013-09-01 11:49:00,
2013-09-01 03:55:00,46.0,44.4,29.82,ENE,78,0.0,0.0,94,0.00,,---,0.02,VWS V14.01,2013-09-01 11:55:00,
2013-09-01 04:01:00,46.1,44.5,29.82,ENE,78,0.0,0.0,94,0.00,,---,0.02,VWS V14.01,2013-09-01 12:01:00,
2013-09-01 04:08:00,46.1,44.5,29.82,ENE,78,0.0,0.0,94,0.00,,---,0.02,VWS V14.01,2013-09-01 12:08:00,
2013-09-01 04:14:00,46.1,44.5,29.82,East,79,0.0,0.0,94,0.00,,---,0.02,VWS V14.01,2013-09-01 12:14:00,
2013-09-01 04:20:00,46.1,44.5,29.81,East,79,0.0,0.0,94,0.00,,---,0.02,VWS V14.01,2013-09-01 12:20:00,
2013-09-01 04:26:00,46.1,44.5,29.81,East,79,0.0,0.0,94,0.00,,---,0.02,VWS V14.01,2013-09-01 12:26:00,
2013-09-01 04:32:00,46.0,44.4,29.82,ENE,78,0.0,0.0,94,0.00,,---,0.02,VWS V14.01,2013-09-01 12:32:00,
2013-09-01 04:38:00,46.0,44.4,29.82,ENE,78,0.0,0.0,94,0.00,,---,0.02,VWS V14.01,2013-09-01 12:38:00,
2013-09-01 04:44:00,45.8,44.2,29.82,East,79,0.0,0.0,94,0.00,,---,0.02,VWS V14.01,2013-09-01 12:44:00,
2013-09-01 04:51:00,45.8,44.2,29.82,ENE,78,0.0,0.0,94,0.00,,---,0.02,VWS V14.01,2013-09-01 12:51:00,
2013-09-01 04:57:00,45.7,44.1,29.82,East,79,0.0,0.0,94,0.00,,---,0.02,VWS V14.01,2013-09-01 12:57:00,
2013-09-01 05:03:00,45.7,44.1,29.82,ENE,78,0.0,0.0,94,0.00,,---,0.02,VWS V14.01,2013-09-01 13:03:00,
2013-09-01 05:09:00,45.7,44.1,29.82,ENE,78,0.0,0.0,94,0.00,,---,0.02,VWS V14.01,2013-09-01 13:09:00,
2013-09-01 05:15:00,45.5,43.6,29.82,ENE,78,0.0,0.0,93,0.00,,---,0.02,VWS V14.01,2013-09-01 13:15:00,
2013-09-01 05:21:00,45.7,44.1,29.82,ENE,78,0.0,0.0,94,0.00,,---,0.02,VWS V14.01,2013-09-01 13:21:00,
2013-09-01 05:27:00,45.5,43.9,29.82,ENE,78,0.0,0.0,94,0.00,,---,0.02,VWS V14.01,2013-09-01 13:27:00,
2013-09-01 05:33:00,45.5,43.9,29.82,ENE,78,0.0,0.0,94,0.00,,---,0.02,VWS V14.01,2013-09-01 13:33:00,
2013-09-01 05:39:00,45.5,43.9,29.82,East,79,0.0,0.0,94,0.00,,---,0.02,VWS V14.01,2013-09-01 13:39:00,
2013-09-01 05:45:00,45.5,43.9,29.82,ENE,78,0.0,0.0,94,0.00,,---,0.02,VWS V14.01,2013-09-01 13:45:00,
2013-09-01 05:51:00,45.7,44.1,29.82,ENE,78,0.0,0.0,94,0.00,,---,0.02,VWS V14.01,2013-09-01 13:51:00,
2013-09-01 05:57:00,45.7,44.1,29.82,East,79,0.0,0.0,94,0.00,,---,0.02,VWS V14.01,2013-09-01 13:57:00,
2013-09-01 06:03:00,45.7,44.1,29.82,ENE,78,0.0,0.0,94,0.00,,---,0.02,VWS V14.01,2013-09-01 14:03:00,
2013-09-01 06:09:00,45.7,44.1,29.82,ENE,78,0.0,0.0,94,0.00,,---,0.02,VWS V14.01,2013-09-01 14:09:00,
2013-09-01 06:15:00,45.7,44.1,29.82,East,79,0.0,0.0,94,0.00,,---,0.02,VWS V14.01,2013-09-01 14:15:00,
2013-09-01 06:21:00,45.8,44.2,29.81,ENE,78,0.0,0.0,94,0.00,,---,0.02,VWS V14.01,2013-09-01 14:21:00,
2013-09-01 06:27:00,45.8,44.2,29.81,ENE,78,0.0,0.0,94,0.00,,---,0.02,VWS V14.01,2013-09-01 14:27:00,
2013-09-01 06:34:00,45.7,44.1,29.81,ENE,78,0.0,0.0,94,0.00,,---,0.02,VWS V14.01,2013-09-01 14:34:00,
2013-09-01 06:40:00,45.5,43.9,29.81,ENE,78,0.0,0.0,94,0.00,,---,0.02,VWS V14.01,2013-09-01 14:40:00,
2013-09-01 06:46:00,45.5,43.9,29.81,East,79,0.0,2.0,94,0.00,,---,0.02,VWS V14.01,2013-09-01 14:46:00,
2013-09-01 06:52:00,45.5,43.9,29.81,ENE,78,0.0,2.0,94,0.00,,---,0.02,VWS V14.01,2013-09-01 14:52:00,
2013-09-01 06:58:00,45.5,43.9,29.81,East,79,0.0,2.0,94,0.00,,---,0.02,VWS V14.01,2013-09-01 14:58:00,
2013-09-01 07:04:00,45.5,43.9,29.81,ENE,78,0.0,1.0,94,0.00,,---,0.02,VWS V14.01,2013-09-01 15:04:00,
2013-09-01 07:10:00,45.5,43.9,29.81,ENE,78,0.0,1.0,94,0.00,,---,0.02,VWS V14.01,2013-09-01 15:10:00,
2013-09-01 07:16:00,45.5,43.9,29.80,ENE,78,0.0,1.0,94,0.00,,---,0.02,VWS V14.01,2013-09-01 15:16:00,
2013-09-01 07:22:00,45.4,43.8,29.80,ENE,78,0.0,1.0,94,0.00,,---,0.02,VWS V14.01,2013-09-01 15:22:00,
2013-09-01 07:28:00,45.4,43.8,29.80,East,79,2.0,3.0,94,0.00,,---,0.02,VWS V14.01,2013-09-01 15:28:00,
2013-09-01 07:34:00,45.4,43.8,29.80,ENE,78,0.0,0.0,94,0.00,,---,0.02,VWS V14.01,2013-09-01 15:34:00,
2013-09-01 07:40:00,45.4,43.8,29.80,East,79,0.0,0.0,94,0.00,,---,0.02,VWS V14.01,2013-09-01 15:40:00,
2013-09-01 07:46:00,45.4,43.8,29.80,ENE,78,0.0,1.0,94,0.00,,---,0.02,VWS V14.01,2013-09-01 15:46:00,
2013-09-01 07:52:00,45.4,43.8,29.80,East,79,0.0,1.0,94,0.00,,---,0.02,VWS V14.01,2013-09-01 15:52:00,
2013-09-01 07:58:00,45.5,43.9,29.80,ENE,78,0.0,2.0,94,0.00,,---,0.02,VWS V14.01,2013-09-01 15:58:00,
2013-09-01 08:04:00,45.5,43.9,29.80,ENE,78,0.0,0.0,94,0.00,,---,0.02,VWS V14.01,2013-09-01 16:04:00,
2013-09-01 08:10:00,45.5,43.9,29.80,ENE,78,0.0,2.0,94,0.00,,---,0.02,VWS V14.01,2013-09-01 16:10:00,
2013-09-01 08:16:00,45.7,44.1,29.79,East,79,0.0,2.0,94,0.00,,---,0.02,VWS V14.01,2013-09-01 16:16:00,
2013-09-01 08:22:00,45.7,44.1,29.79,ENE,78,0.0,2.0,94,0.00,,---,0.02,VWS V14.01,2013-09-01 16:22:00,
2013-09-01 08:28:00,46.0,44.4,29.79,ENE,78,0.0,2.0,94,0.00,,---,0.02,VWS V14.01,2013-09-01 16:28:00,
2013-09-01 08:34:00,46.1,44.5,29.79,East,82,1.0,2.0,94,0.00,,---,0.02,VWS V14.01,2013-09-01 16:34:00,
2013-09-01 08:40:00,46.4,44.8,29.79,NNE,28,0.0,2.0,94,0.00,,---,0.02,VWS V14.01,2013-09-01 16:40:00,
2013-09-01 08:46:00,46.5,44.9,29.78,SSE,151,0.0,2.0,94,0.00,,---,0.02,VWS V14.01,2013-09-01 16:46:00,
2013-09-01 08:52:00,46.8,45.2,29.78,East,93,0.0,2.0,94,0.00,,---,0.02,VWS V14.01,2013-09-01 16:52:00,
2013-09-01 08:59:00,47.0,45.4,29.78,East,92,0.0,2.0,94,0.00,,---,0.02,VWS V14.01,2013-09-01 16:59:00,
2013-09-01 09:05:00,47.3,45.7,29.78,East,93,0.0,0.0,94,0.00,,---,0.02,VWS V14.01,2013-09-01 17:05:00,
2013-09-01 09:11:00,47.7,46.1,29.78,East,93,0.0,1.0,94,0.00,,---,0.02,VWS V14.01,2013-09-01 17:11:00,
2013-09-01 09:17:00,48.0,46.4,29.77,SE,142,5.0,5.0,94,0.00,,---,0.02,VWS V14.01,2013-09-01 17:17:00,
2013-09-01 09:23:00,47.9,46.3,29.77,SE,142,0.0,5.0,94,0.00,,---,0.02,VWS V14.01,2013-09-01 17:23:00,
2013-09-01 09:29:00,47.7,46.1,29.77,SE,142,0.0,5.0,94,0.00,,---,0.02,VWS V14.01,2013-09-01 17:29:00,
2013-09-01 09:35:00,47.7,46.1,29.77,SE,142,0.0,0.0,94,0.00,,---,0.02,VWS V14.01,2013-09-01 17:35:00,
2013-09-01 09:41:00,47.9,46.3,29.77,SE,142,0.0,2.0,94,0.00,,---,0.02,VWS V14.01,2013-09-01 17:41:00,
2013-09-01 09:47:00,48.0,46.4,29.77,SE,142,0.0,2.0,94,0.00,,---,0.02,VWS V14.01,2013-09-01 17:47:00,
2013-09-01 09:53:00,48.3,46.7,29.77,SE,142,0.0,2.0,94,0.00,,---,0.02,VWS V14.01,2013-09-01 17:53:00,
2013-09-01 09:59:00,48.6,47.0,29.77,SE,142,0.0,2.0,94,0.00,,---,0.02,VWS V14.01,2013-09-01 17:59:00,
2013-09-01 10:05:00,48.8,47.2,29.78,SE,142,0.0,0.0,94,0.00,,---,0.02,VWS V14.01,2013-09-01 18:05:00,
2013-09-01 10:11:00,49.1,47.5,29.78,ESE,109,0.0,0.0,94,0.00,,---,0.02,VWS V14.01,2013-09-01 18:11:00,
2013-09-01 10:17:00,49.4,47.8,29.77,SSE,153,0.0,1.0,94,0.00,,---,0.02,VWS V14.01,2013-09-01 18:17:00,
2013-09-01 10:23:00,49.6,47.7,29.77,SSE,167,0.0,4.0,93,0.00,,---,0.02,VWS V14.01,2013-09-01 18:23:00,
2013-09-01 10:29:00,49.8,47.9,29.77,South,172,0.0,5.0,93,0.00,,---,0.02,VWS V14.01,2013-09-01 18:29:00,
2013-09-01 10:35:00,50.2,48.3,29.77,SE,131,1.0,4.0,93,0.00,,---,0.02,VWS V14.01,2013-09-01 18:35:00,
2013-09-01 10:41:00,50.4,47.6,29.77,SE,133,0.0,4.0,90,0.00,,---,0.02,VWS V14.01,2013-09-01 18:41:00,
2013-09-01 10:47:00,50.7,47.3,29.78,SSE,153,0.0,4.0,88,0.00,,---,0.02,VWS V14.01,2013-09-01 18:47:00,
2013-09-01 10:53:00,51.3,48.2,29.78,SSE,153,0.0,4.0,89,0.00,,---,0.02,VWS V14.01,2013-09-01 18:53:00,
2013-09-01 10:59:00,51.4,47.4,29.78,SSE,153,0.0,4.0,86,0.00,,---,0.02,VWS V14.01,2013-09-01 18:59:00,
2013-09-01 11:05:00,51.7,47.7,29.78,SSE,153,0.0,1.0,86,0.00,,---,0.02,VWS V14.01,2013-09-01 19:05:00,
2013-09-01 11:11:00,52.2,48.5,29.78,SSE,153,0.0,1.0,87,0.00,,---,0.02,VWS V14.01,2013-09-01 19:11:00,
2013-09-01 11:17:00,52.5,48.4,29.78,SSE,153,0.0,1.0,86,0.00,,---,0.02,VWS V14.01,2013-09-01 19:17:00,
2013-09-01 11:23:00,52.9,49.8,29.78,SSE,153,0.0,1.0,89,0.00,,---,0.02,VWS V14.01,2013-09-01 19:23:00,
2013-09-01 11:29:00,53.2,49.1,29.78,SSE,153,0.0,1.0,86,0.00,,---,0.02,VWS V14.01,2013-09-01 19:29:00,
2013-09-01 11:35:00,53.2,48.8,29.79,SSE,153,0.0,2.0,85,0.00,,---,0.02,VWS V14.01,2013-09-01 19:35:00,
2013-09-01 11:41:00,53.2,48.8,29.79,SSE,153,0.0,2.0,85,0.00,,---,0.02,VWS V14.01,2013-09-01 19:41:00,
2013-09-01 11:47:00,53.2,48.8,29.78,SSE,153,0.0,2.0,85,0.00,,---,0.02,VWS V14.01,2013-09-01 19:47:00,
2013-09-01 11:53:00,53.2,48.5,29.78,SSE,147,0.0,3.0,84,0.00,,---,0.02,VWS V14.01,2013-09-01 19:53:00,
2013-09-01 11:59:00,53.1,48.1,29.78,SE,146,0.0,3.0,83,0.00,,---,0.02,VWS V14.01,2013-09-01 19:59:00,
2013-09-01 12:05:00,52.9,47.2,29.78,SSE,153,0.0,4.0,81,0.00,,---,0.02,VWS V14.01,2013-09-01 20:05:00,
2013-09-01 12:11:00,53.1,48.7,29.78,SSE,153,0.0,4.0,85,0.00,,---,0.02,VWS V14.01,2013-09-01 20:11:00,
2013-09-01 12:17:00,53.2,49.4,29.78,SSE,153,0.0,4.0,87,0.00,,---,0.02,VWS V14.01,2013-09-01 20:17:00,
2013-09-01 12:23:00,53.3,48.3,29.78,SSE,153,0.0,4.0,83,0.00,,---,0.02,VWS V14.01,2013-09-01 20:23:00,
2013-09-01 12:29:00,53.3,48.9,29.78,SSE,153,0.0,4.0,85,0.00,,---,0.02,VWS V14.01,2013-09-01 20:29:00,
2013-09-01 12:35:00,53.5,48.5,29.78,SSE,153,0.0,0.0,83,0.00,,---,0.02,VWS V14.01,2013-09-01 20:35:00,
2013-09-01 12:42:00,53.6,48.9,29.78,SSE,153,0.0,1.0,84,0.00,,---,0.02,VWS V14.01,2013-09-01 20:42:00,
2013-09-01 12:48:00,53.8,49.4,29.78,SSE,153,0.0,2.0,85,0.00,,---,0.02,VWS V14.01,2013-09-01 20:48:00,
2013-09-01 12:54:00,54.1,49.7,29.78,SSE,153,0.0,2.0,85,0.00,,---,0.02,VWS V14.01,2013-09-01 20:54:00,
2013-09-01 13:00:00,54.2,49.2,29.78,SSE,153,0.0,2.0,83,0.00,,---,0.02,VWS V14.01,2013-09-01 21:00:00,
2013-09-01 13:06:00,54.5,50.4,29.78,SSE,153,0.0,0.0,86,0.00,,---,0.02,VWS V14.01,2013-09-01 21:06:00,
2013-09-01 13:12:00,54.8,50.1,29.78,SSE,153,0.0,0.0,84,0.00,,---,0.02,VWS V14.01,2013-09-01 21:12:00,
2013-09-01 13:18:00,55.0,49.9,29.78,SSE,153,0.0,0.0,83,0.00,,---,0.02,VWS V14.01,2013-09-01 21:18:00,
2013-09-01 13:24:00,55.3,50.2,29.78,SSE,153,0.0,0.0,83,0.00,,---,0.02,VWS V14.01,2013-09-01 21:24:00,
2013-09-01 13:30:00,55.4,50.3,29.78,SSE,153,0.0,2.0,83,0.00,,---,0.02,VWS V14.01,2013-09-01 21:30:00,
2013-09-01 13:36:00,55.6,50.8,29.77,SSE,153,0.0,1.0,84,0.00,,---,0.02,VWS V14.01,2013-09-01 21:36:00,
2013-09-01 13:42:00,55.6,49.9,29.77,SSE,153,0.0,2.0,81,0.00,,---,0.02,VWS V14.01,2013-09-01 21:42:00,
2013-09-01 13:48:00,55.7,49.6,29.77,SSE,153,0.0,2.0,80,0.00,,---,0.02,VWS V14.01,2013-09-01 21:48:00,
2013-09-01 13:54:00,55.9,49.5,29.77,SSE,153,0.0,2.0,79,0.00,,---,0.02,VWS V14.01,2013-09-01 21:54:00,
2013-09-01 14:00:00,55.9,50.2,29.77,SSE,153,0.0,2.0,81,0.00,,---,0.02,VWS V14.01,2013-09-01 22:00:00,
2013-09-01 14:06:00,56.0,49.2,29.77,SSE,153,0.0,0.0,78,0.00,,---,0.02,VWS V14.01,2013-09-01 22:06:00,
2013-09-01 14:12:00,56.0,48.5,29.77,SSE,153,0.0,0.0,76,0.00,,---,0.02,VWS V14.01,2013-09-01 22:12:00,
2013-09-01 14:18:00,56.0,48.5,29.77,SSE,153,0.0,1.0,76,0.00,,---,0.02,VWS V14.01,2013-09-01 22:18:00,
2013-09-01 14:24:00,56.2,48.8,29.77,SSE,153,0.0,1.0,76,0.00,,---,0.02,VWS V14.01,2013-09-01 22:24:00,
2013-09-01 14:30:00,56.3,50.2,29.77,SSE,153,0.0,1.0,80,0.00,,---,0.02,VWS V14.01,2013-09-01 22:30:00,
2013-09-01 14:36:00,56.2,51.1,29.77,SSE,153,0.0,0.0,83,0.00,,---,0.02,VWS V14.01,2013-09-01 22:36:00,
2013-09-01 14:42:00,56.0,49.2,29.77,SSE,153,0.0,0.0,78,0.00,,---,0.02,VWS V14.01,2013-09-01 22:42:00,
2013-09-01 14:48:00,56.0,50.9,29.77,SSE,153,0.0,0.0,83,0.00,,---,0.02,VWS V14.01,2013-09-01 22:48:00,
2013-09-01 14:54:00,55.9,50.5,29.77,SSE,153,0.0,0.0,82,0.00,,---,0.02,VWS V14.01,2013-09-01 22:54:00,
2013-09-01 15:00:00,55.7,50.3,29.77,SSE,153,0.0,0.0,82,0.00,,---,0.02,VWS V14.01,2013-09-01 23:00:00,
2013-09-01 15:06:00,55.9,50.8,29.77,SSE,153,0.0,0.0,83,0.00,,---,0.02,VWS V14.01,2013-09-01 23:06:00,
2013-09-01 15:12:00,55.9,50.2,29.77,SSE,153,0.0,0.0,81,0.00,,---,0.02,VWS V14.01,2013-09-01 23:12:00,
2013-09-01 15:18:00,56.0,50.6,29.77,SSE,153,0.0,0.0,82,0.00,,---,0.02,VWS V14.01,2013-09-01 23:18:00,
2013-09-01 15:24:00,56.0,50.3,29.77,SSE,153,0.0,0.0,81,0.00,,---,0.02,VWS V14.01,2013-09-01 23:24:00,
2013-09-01 15:30:00,56.2,51.4,29.77,SSE,153,0.0,0.0,84,0.00,,---,0.02,VWS V14.01,2013-09-01 23:30:00,
2013-09-01 15:36:00,56.2,50.8,29.77,SSE,153,0.0,0.0,82,0.00,,---,0.02,VWS V14.01,2013-09-01 23:36:00,
2013-09-01 15:42:00,56.3,50.9,29.77,SSE,153,0.0,0.0,82,0.00,,---,0.02,VWS V14.01,2013-09-01 23:42:00,
2013-09-01 15:48:00,56.3,51.2,29.77,SSE,153,0.0,0.0,83,0.00,,---,0.02,VWS V14.01,2013-09-01 23:48:00,
2013-09-01 15:54:00,56.3,50.9,29.77,SSE,153,0.0,0.0,82,0.00,,---,0.02,VWS V14.01,2013-09-01 23:54:00,
2013-09-01 16:00:00,56.3,50.9,29.77,SSE,153,0.0,0.0,82,0.01,,---,0.03,VWS V14.01,2013-09-02 00:00:00,
2013-09-01 16:06:00,56.3,50.5,29.77,SSE,153,0.0,0.0,81,0.01,,---,0.03,VWS V14.01,2013-09-02 00:06:00,
2013-09-01 16:12:00,56.3,51.2,29.77,SSE,153,0.0,0.0,83,0.01,,---,0.03,VWS V14.01,2013-09-02 00:12:00,
2013-09-01 16:18:00,56.3,50.9,29.76,SSE,153,0.0,0.0,82,0.01,,---,0.03,VWS V14.01,2013-09-02 00:18:00,
2013-09-01 16:24:00,56.2,50.8,29.76,SSE,153,0.0,0.0,82,0.01,,---,0.03,VWS V14.01,2013-09-02 00:24:00,
2013-09-01 16:30:00,56.2,51.8,29.76,SSE,153,0.0,0.0,85,0.01,,---,0.03,VWS V14.01,2013-09-02 00:30:00,
2013-09-01 16:37:00,56.2,52.1,29.76,SSE,153,0.0,0.0,86,0.01,,---,0.03,VWS V14.01,2013-09-02 00:37:00,
2013-09-01 16:43:00,56.0,52.2,29.76,SSE,153,0.0,0.0,87,0.01,,---,0.03,VWS V14.01,2013-09-02 00:43:00,
2013-09-01 16:49:00,56.0,52.5,29.76,SSE,153,0.0,0.0,88,0.01,,---,0.03,VWS V14.01,2013-09-02 00:49:00,
2013-09-01 16:55:00,55.9,52.1,29.76,SSE,153,0.0,0.0,87,0.01,,---,0.03,VWS V14.01,2013-09-02 00:55:00,
2013-09-01 17:01:00,55.7,51.3,29.75,SSE,153,0.0,1.0,85,0.01,,---,0.03,VWS V14.01,2013-09-02 01:01:00,
2013-09-01 17:07:00,55.3,50.6,29.75,SSE,153,0.0,2.0,84,0.00,,---,0.03,VWS V14.01,2013-09-02 01:07:00,
2013-09-01 17:13:00,54.8,50.4,29.75,SSE,153,0.0,2.0,85,0.00,,---,0.03,VWS V14.01,2013-09-02 01:13:00,
2013-09-01 17:19:00,54.5,50.4,29.75,SSE,153,0.0,2.0,86,0.00,,---,0.03,VWS V14.01,2013-09-02 01:19:00,
2013-09-01 17:25:00,54.2,50.4,29.75,SSE,153,0.0,2.0,87,0.00,,---,0.03,VWS V14.01,2013-09-02 01:25:00,
2013-09-01 17:31:00,54.2,51.0,29.74,SSE,153,0.0,2.0,89,0.01,,---,0.04,VWS V14.01,2013-09-02 01:31:00,
2013-09-01 17:37:00,54.2,51.0,29.74,SSE,153,0.0,2.0,89,0.01,,---,0.04,VWS V14.01,2013-09-02 01:37:00,
2013-09-01 17:43:00,54.1,50.9,29.74,ENE,69,0.0,2.0,89,0.01,,---,0.04,VWS V14.01,2013-09-02 01:43:00,
2013-09-01 17:49:00,53.8,50.6,29.74,ENE,76,0.0,2.0,89,0.01,,---,0.04,VWS V14.01,2013-09-02 01:49:00,
2013-09-01 17:55:00,53.6,50.7,29.74,East,81,0.0,2.0,90,0.01,,---,0.04,VWS V14.01,2013-09-02 01:55:00,
2013-09-01 18:01:00,53.3,50.5,29.74,SE,132,0.0,4.0,90,0.01,,---,0.04,VWS V14.01,2013-09-02 02:01:00,
2013-09-01 18:07:00,53.1,50.0,29.74,ENE,69,0.0,2.0,89,0.01,,---,0.04,VWS V14.01,2013-09-02 02:07:00,
2013-09-01 18:13:00,52.8,49.7,29.74,ENE,69,0.0,2.0,89,0.01,,---,0.04,VWS V14.01,2013-09-02 02:13:00,
2013-09-01 18:19:00,52.6,49.8,29.74,ENE,69,0.0,2.0,90,0.02,,---,0.05,VWS V14.01,2013-09-02 02:19:00,
2013-09-01 18:25:00,52.5,49.7,29.74,ENE,69,0.0,2.0,90,0.02,,---,0.05,VWS V14.01,2013-09-02 02:25:00,
2013-09-01 18:31:00,52.5,50.0,29.73,ENE,69,0.0,2.0,91,0.02,,---,0.05,VWS V14.01,2013-09-02 02:31:00,
2013-09-01 18:37:00,52.3,49.8,29.73,ENE,69,0.0,2.0,91,0.01,,---,0.05,VWS V14.01,2013-09-02 02:37:00,
2013-09-01 18:43:00,52.0,49.2,29.73,East,82,0.0,4.0,90,0.01,,---,0.05,VWS V14.01,2013-09-02 02:43:00,
2013-09-01 18:49:00,51.7,48.9,29.73,East,82,0.0,4.0,90,0.01,,---,0.05,VWS V14.01,2013-09-02 02:49:00,
2013-09-01 18:55:00,51.6,48.8,29.73,SE,143,0.0,4.0,90,0.01,,---,0.05,VWS V14.01,2013-09-02 02:55:00,
2013-09-01 19:01:00,51.4,48.6,29.73,SE,130,0.0,4.0,90,0.01,,---,0.05,VWS V14.01,2013-09-02 03:01:00,
2013-09-01 19:07:00,51.4,48.9,29.73,SE,130,0.0,3.0,91,0.01,,---,0.05,VWS V14.01,2013-09-02 03:07:00,
2013-09-01 19:13:00,51.4,48.9,29.73,SE,129,1.0,3.0,91,0.01,,---,0.05,VWS V14.01,2013-09-02 03:13:00,
2013-09-01 19:19:00,51.4,48.9,29.72,NE,44,0.0,3.0,91,0.02,,---,0.06,VWS V14.01,2013-09-02 03:19:00,
2013-09-01 19:25:00,51.3,48.8,29.72,East,80,0.0,4.0,91,0.02,,---,0.06,VWS V14.01,2013-09-02 03:25:00,
2013-09-01 19:31:00,51.0,48.5,29.73,ENE,74,0.0,4.0,91,0.02,,---,0.06,VWS V14.01,2013-09-02 03:31:00,
2013-09-01 19:37:00,51.0,48.8,29.73,NE,40,2.0,4.0,92,0.01,,---,0.06,VWS V14.01,2013-09-02 03:37:00,
2013-09-01 19:43:00,50.8,48.3,29.73,East,80,0.0,4.0,91,0.01,,---,0.06,VWS V14.01,2013-09-02 03:43:00,
2013-09-01 19:49:00,50.5,48.0,29.72,ENE,63,0.0,5.0,91,0.01,,---,0.06,VWS V14.01,2013-09-02 03:49:00,
2013-09-01 19:55:00,50.4,47.9,29.72,East,89,0.0,5.0,91,0.01,,---,0.06,VWS V14.01,2013-09-02 03:55:00,
2013-09-01 20:01:00,50.4,47.9,29.71,SE,134,1.0,5.0,91,0.01,,---,0.06,VWS V14.01,2013-09-02 04:01:00,
2013-09-01 20:02:00,50.4,47.9,29.71,SE,133,0.0,1.0,91,0.01,,---,0.06,VWS V14.01,2013-09-02 04:02:00,
2013-09-01 20:04:00,50.4,47.9,29.71,SE,128,0.0,2.0,91,0.01,,---,0.06,VWS V14.01,2013-09-02 04:04:00,
2013-09-01 20:08:00,50.4,48.2,29.71,ENE,61,0.0,5.0,92,0.01,,---,0.06,VWS V14.01,2013-09-02 04:08:00,
2013-09-01 20:14:00,50.4,48.2,29.71,ENE,65,0.0,5.0,92,0.02,,---,0.07,VWS V14.01,2013-09-02 04:14:00,
2013-09-01 20:20:00,50.4,48.2,29.71,ESE,121,0.0,5.0,92,0.02,,---,0.07,VWS V14.01,2013-09-02 04:20:00,
2013-09-01 20:26:00,50.2,48.0,29.71,ENE,71,2.0,5.0,92,0.02,,---,0.07,VWS V14.01,2013-09-02 04:26:00,
2013-09-01 20:31:00,50.1,47.9,29.71,East,86,0.0,5.0,92,0.03,,---,0.08,VWS V14.01,2013-09-02 04:31:00,
2013-09-01 20:38:00,49.9,47.7,29.71,NE,43,3.0,5.0,92,0.02,,---,0.08,VWS V14.01,2013-09-02 04:38:00,
2013-09-01 20:44:00,49.8,47.6,29.71,ENE,65,0.0,5.0,92,0.02,,---,0.08,VWS V14.01,2013-09-02 04:44:00,
2013-09-01 20:50:00,49.8,47.9,29.71,NE,42,0.0,5.0,93,0.03,,---,0.09,VWS V14.01,2013-09-02 04:50:00,
2013-09-01 20:56:00,49.8,47.9,29.71,ENE,58,2.0,5.0,93,0.03,,---,0.09,VWS V14.01,2013-09-02 04:56:00,
2013-09-01 21:01:00,49.8,47.9,29.71,ENE,58,0.0,5.0,93,0.04,,---,0.10,VWS V14.01,2013-09-02 05:01:00,
2013-09-01 21:08:00,49.6,47.7,29.71,ENE,71,0.0,5.0,93,0.04,,---,0.10,VWS V14.01,2013-09-02 05:08:00,
2013-09-01 21:14:00,49.6,47.7,29.71,East,95,0.0,5.0,93,0.05,,---,0.11,VWS V14.01,2013-09-02 05:14:00,
2013-09-01 21:20:00,49.8,47.9,29.71,East,94,0.0,5.0,93,0.05,,---,0.11,VWS V14.01,2013-09-02 05:20:00,
2013-09-01 21:26:00,49.8,47.9,29.71,SE,134,0.0,5.0,93,0.06,,---,0.12,VWS V14.01,2013-09-02 05:26:00,
2013-09-01 21:31:00,49.6,47.7,29.70,ENE,63,0.0,5.0,93,0.06,,---,0.12,VWS V14.01,2013-09-02 05:31:00,
2013-09-01 21:38:00,49.6,47.7,29.70,NE,50,2.0,5.0,93,0.04,,---,0.12,VWS V14.01,2013-09-02 05:38:00,
2013-09-01 21:44:00,49.6,47.7,29.70,ENE,57,3.0,5.0,93,0.05,,---,0.13,VWS V14.01,2013-09-02 05:44:00,
2013-09-01 21:50:00,49.6,47.7,29.70,SE,129,0.0,6.0,93,0.05,,---,0.13,VWS V14.01,2013-09-02 05:50:00,
2013-09-01 21:56:00,49.8,47.9,29.70,NNE,20,0.0,6.0,93,0.05,,---,0.13,VWS V14.01,2013-09-02 05:56:00,
2013-09-01 22:01:00,49.9,48.0,29.70,SE,146,0.0,6.0,93,0.05,,---,0.13,VWS V14.01,2013-09-02 06:01:00,
2013-09-01 22:06:00,49.8,47.9,29.70,East,81,0.0,2.0,93,0.04,,---,0.14,VWS V14.01,2013-09-02 06:06:00,
2013-09-01 22:12:00,49.8,47.9,29.70,ESE,103,0.0,4.0,93,0.04,,---,0.14,VWS V14.01,2013-09-02 06:12:00,
2013-09-01 22:18:00,49.6,47.7,29.70,SSE,165,0.0,4.0,93,0.04,,---,0.14,VWS V14.01,2013-09-02 06:18:00,
2013-09-01 22:24:00,49.6,47.7,29.70,East,86,0.0,4.0,93,0.04,,---,0.14,VWS V14.01,2013-09-02 06:24:00,
2013-09-01 22:30:00,49.6,47.7,29.71,East,86,0.0,4.0,93,0.04,,---,0.14,VWS V14.01,2013-09-02 06:30:00,
2013-09-01 22:36:00,49.8,48.2,29.71,East,86,2.0,2.0,94,0.02,,---,0.14,VWS V14.01,2013-09-02 06:36:00,
2013-09-01 22:42:00,49.8,48.2,29.71,ENE,69,0.0,5.0,94,0.02,,---,0.14,VWS V14.01,2013-09-02 06:42:00,
2013-09-01 22:48:00,49.8,48.2,29.71,ENE,69,0.0,5.0,94,0.02,,---,0.14,VWS V14.01,2013-09-02 06:48:00,
2013-09-01 22:54:00,49.8,48.2,29.71,East,84,1.0,5.0,94,0.02,,---,0.14,VWS V14.01,2013-09-02 06:54:00,
2013-09-01 23:00:00,50.1,48.4,29.70,North,5,0.0,5.0,94,0.02,,---,0.14,VWS V14.01,2013-09-02 07:00:00,
2013-09-01 23:06:00,50.4,48.7,29.70,South,172,0.0,8.0,94,0.01,,---,0.14,VWS V14.01,2013-09-02 07:06:00,
2013-09-01 23:12:00,50.7,49.0,29.70,West,275,1.0,8.0,94,0.01,,---,0.14,VWS V14.01,2013-09-02 07:12:00,
2013-09-01 23:18:00,50.8,49.1,29.70,NE,42,1.0,8.0,94,0.01,,---,0.14,VWS V14.01,2013-09-02 07:18:00,
2013-09-01 23:24:00,51.0,49.3,29.70,NE,44,0.0,8.0,94,0.01,,---,0.14,VWS V14.01,2013-09-02 07:24:00,
2013-09-01 23:30:00,51.0,49.3,29.69,NNE,26,1.0,8.0,94,0.01,,---,0.14,VWS V14.01,2013-09-02 07:30:00,
2013-09-01 23:36:00,51.1,49.4,29.69,ESE,115,0.0,8.0,94,0.00,,---,0.14,VWS V14.01,2013-09-02 07:36:00,
2013-09-01 23:42:00,51.3,49.3,29.69,East,88,1.0,8.0,93,0.00,,---,0.14,VWS V14.01,2013-09-02 07:42:00,
2013-09-01 23:48:00,52.0,48.6,29.69,East,99,5.0,8.0,88,0.00,,---,0.14,VWS V14.01,2013-09-02 07:48:00,
2013-09-01 23:55:00,52.5,48.8,29.69,ESE,107,6.0,8.0,87,0.00,,---,0.14,VWS V14.01,2013-09-02 07:55:00,